PWSweather.com
Personal Weather Stations
Station Observations
SEVNO44
Sevno, PrimskovoSI 1276

SevnoPrimskovoSI 1276

Lat: 45.9796285, Lon: 14.924044999999978

Elevation: 1706.0368

Station Type: WS-2307

www.primskovo.eu/vreme

High Low Average
Temperature 59.2°F15.1°C 54.3°F12.4°C 56.5°F13.6°C
Dew Point 56.9°F13.8°C 52.0°F11.1°C 54.2°F12.3°C
Winds 5.7 mph 9.2 kmh Calm Calm 1.0 mph SE1.6 kmh SE
Wind Gusts 10.3 mph16.6 kmh -- 3.0 mph4.8 kmh
Humidity 93% 91% 92%
Pressure 30.03 in1016.9 mb 29.86 in1011.2 mb -
Precipitation 0.88 in22.4 mm - -
Hour Temp Dew Point Humidity Winds Wind Gusts Pressure Precip Precip Rate Daily Precip Total
12:00 AM 58.6°F14.8°C 56.3°F13.5°C 92% 0.1 mph ENE0.2 kmh ENE 0.7 mph1.1 kmh 30.02 in1016.6 mb 0.02 in0.5 mm 0.00 in0.0 mm 0.02 in0.5 mm
12:05 AM 58.6°F14.8°C 56.3°F13.5°C 92% 0.5 mph WNW0.8 kmh WNW 2.5 mph4.0 kmh 30.02 in1016.6 mb 0.02 in0.5 mm 0.00 in0.0 mm 0.02 in0.5 mm
12:10 AM 58.6°F14.8°C 56.3°F13.5°C 92% 1.7 mph WNW2.7 kmh WNW 2.5 mph4.0 kmh 30.02 in1016.6 mb 0.02 in0.5 mm 0.00 in0.0 mm 0.02 in0.5 mm
12:15 AM 58.1°F14.5°C 55.8°F13.2°C 92% 1.8 mph WNW2.9 kmh WNW 2.5 mph4.0 kmh 30.02 in1016.6 mb 0.00 in0.0 mm 0.00 in0.0 mm 0.02 in0.5 mm
12:20 AM 57.9°F14.4°C 55.6°F13.1°C 92% 0.6 mph WNW1.0 kmh WNW 2.5 mph4.0 kmh 30.02 in1016.6 mb 0.00 in0.0 mm 0.00 in0.0 mm 0.02 in0.5 mm
12:25 AM 57.6°F14.2°C 55.0°F12.8°C 91% Calm Calm -- 30.01 in1016.3 mb 0.00 in0.0 mm 0.00 in0.0 mm 0.02 in0.5 mm
12:30 AM 57.4°F14.1°C 54.8°F12.7°C 91% 0.2 mph SSW0.3 kmh SSW 1.1 mph1.8 kmh 30.01 in1016.3 mb 0.00 in0.0 mm 0.00 in0.0 mm 0.02 in0.5 mm
12:35 AM 57.4°F14.1°C 54.8°F12.7°C 91% 0.2 mph SSW0.3 kmh SSW 1.1 mph1.8 kmh 30.01 in1016.3 mb 0.00 in0.0 mm 0.00 in0.0 mm 0.02 in0.5 mm
12:37 AM 57.4°F14.1°C 54.8°F12.7°C 91% Calm Calm -- 30.01 in1016.3 mb 0.00 in0.0 mm 0.00 in0.0 mm 0.04 in1.0 mm
12:40 AM 57.4°F14.1°C 54.8°F12.7°C 91% Calm Calm -- 30.01 in1016.3 mb 0.00 in0.0 mm 0.00 in0.0 mm 0.02 in0.5 mm
12:45 AM 57.0°F13.9°C 54.4°F12.4°C 91% 0.8 mph W1.3 kmh W 3.8 mph6.1 kmh 30.01 in1016.3 mb 0.00 in0.0 mm 0.00 in0.0 mm 0.02 in0.5 mm
12:50 AM 56.8°F13.8°C 54.2°F12.3°C 91% 2.7 mph WSW4.3 kmh WSW 5.6 mph9.0 kmh 30.01 in1016.3 mb 0.00 in0.0 mm 0.00 in0.0 mm 0.02 in0.5 mm
12:55 AM 56.8°F13.8°C 54.2°F12.3°C 91% 4.7 mph SW7.6 kmh SW 5.6 mph9.0 kmh 30.02 in1016.6 mb 0.00 in0.0 mm 0.00 in0.0 mm 0.02 in0.5 mm
01:00 AM 56.3°F13.5°C 53.7°F12.1°C 91% 4.4 mph SW7.1 kmh SW 5.6 mph9.0 kmh 30.01 in1016.3 mb 0.00 in0.0 mm 0.00 in0.0 mm 0.02 in0.5 mm
01:05 AM 56.1°F13.4°C 53.5°F11.9°C 91% 1.6 mph SW2.6 kmh SW 5.6 mph9.0 kmh 30.01 in1016.3 mb 0.00 in0.0 mm 0.00 in0.0 mm 0.02 in0.5 mm
01:10 AM 55.9°F13.3°C 53.4°F11.9°C 91% 0.7 mph SSW1.1 kmh SSW 2.0 mph3.2 kmh 30.02 in1016.6 mb 0.02 in0.5 mm 0.24 in6.1 mm 0.04 in1.0 mm
01:15 AM 55.9°F13.3°C 53.4°F11.9°C 91% 1.7 mph S2.7 kmh S 2.0 mph3.2 kmh 30.02 in1016.6 mb 0.02 in0.5 mm 0.00 in0.0 mm 0.04 in1.0 mm
01:20 AM 55.8°F13.2°C 53.2°F11.8°C 91% 1.5 mph SSE2.4 kmh SSE 2.0 mph3.2 kmh 30.02 in1016.6 mb 0.02 in0.5 mm 0.00 in0.0 mm 0.04 in1.0 mm
01:25 AM 55.6°F13.1°C 53.0°F11.7°C 91% 0.4 mph E0.6 kmh E 2.0 mph3.2 kmh 30.02 in1016.6 mb 0.04 in1.0 mm 0.24 in6.1 mm 0.06 in1.5 mm
01:30 AM 55.6°F13.1°C 53.0°F11.7°C 91% Calm Calm -- 30.01 in1016.3 mb 0.04 in1.0 mm 0.00 in0.0 mm 0.06 in1.5 mm
01:35 AM 55.6°F13.1°C 53.0°F11.7°C 91% Calm Calm -- 30.01 in1016.3 mb 0.04 in1.0 mm 0.00 in0.0 mm 0.06 in1.5 mm
01:37 AM 55.6°F13.1°C 53.0°F11.7°C 91% Calm Calm -- 30.01 in1016.3 mb 0.04 in1.0 mm 0.00 in0.0 mm 0.08 in2.0 mm
01:40 AM 55.6°F13.1°C 53.0°F11.7°C 91% Calm Calm -- 30.01 in1016.3 mb 0.04 in1.0 mm 0.00 in0.0 mm 0.06 in1.5 mm
01:45 AM 55.6°F13.1°C 53.0°F11.7°C 91% Calm Calm -- 30.01 in1016.3 mb 0.04 in1.0 mm 0.00 in0.0 mm 0.06 in1.5 mm
01:50 AM 55.4°F13.0°C 52.8°F11.6°C 91% Calm Calm -- 30.01 in1016.3 mb 0.04 in1.0 mm 0.00 in0.0 mm 0.06 in1.5 mm
01:55 AM 55.2°F12.9°C 52.6°F11.4°C 91% Calm Calm -- 30.01 in1016.3 mb 0.04 in1.0 mm 0.00 in0.0 mm 0.06 in1.5 mm
02:10 AM 55.2°F12.9°C 52.6°F11.4°C 91% 1.8 mph W2.9 kmh W 4.7 mph7.6 kmh 30.00 in1015.9 mb 0.02 in0.5 mm 0.00 in0.0 mm 0.06 in1.5 mm
02:15 AM 55.2°F12.9°C 52.6°F11.4°C 91% 1.6 mph WSW2.6 kmh WSW 4.7 mph7.6 kmh 30.01 in1016.3 mb 0.02 in0.5 mm 0.00 in0.0 mm 0.06 in1.5 mm
02:20 AM 55.2°F12.9°C 52.6°F11.4°C 91% 0.7 mph SW1.1 kmh SW 4.7 mph7.6 kmh 30.01 in1016.3 mb 0.02 in0.5 mm 0.00 in0.0 mm 0.06 in1.5 mm
02:25 AM 55.2°F12.9°C 52.6°F11.4°C 91% Calm Calm -- 30.01 in1016.3 mb 0.00 in0.0 mm 0.00 in0.0 mm 0.06 in1.5 mm
02:30 AM 55.2°F12.9°C 52.6°F11.4°C 91% Calm Calm -- 30.01 in1016.3 mb 0.00 in0.0 mm 0.00 in0.0 mm 0.06 in1.5 mm
02:35 AM 55.0°F12.8°C 52.5°F11.4°C 91% Calm Calm -- 30.01 in1016.3 mb 0.00 in0.0 mm 0.00 in0.0 mm 0.06 in1.5 mm
02:37 AM 55.0°F12.8°C 52.5°F11.4°C 91% Calm Calm -- 30.01 in1016.3 mb 0.00 in0.0 mm 0.00 in0.0 mm 0.08 in2.0 mm
02:40 AM 55.0°F12.8°C 52.5°F11.4°C 91% Calm Calm -- 30.01 in1016.3 mb 0.00 in0.0 mm 0.00 in0.0 mm 0.06 in1.5 mm
02:45 AM 55.0°F12.8°C 52.5°F11.4°C 91% Calm Calm -- 30.02 in1016.6 mb 0.00 in0.0 mm 0.00 in0.0 mm 0.06 in1.5 mm
02:50 AM 55.0°F12.8°C 52.5°F11.4°C 91% 0.4 mph SE0.6 kmh SE 2.0 mph3.2 kmh 30.02 in1016.6 mb 0.00 in0.0 mm 0.00 in0.0 mm 0.06 in1.5 mm
02:55 AM 55.0°F12.8°C 52.8°F11.6°C 92% 0.4 mph SE0.6 kmh SE 2.0 mph3.2 kmh 30.01 in1016.3 mb 0.00 in0.0 mm 0.00 in0.0 mm 0.06 in1.5 mm
03:00 AM 55.0°F12.8°C 52.8°F11.6°C 92% 0.8 mph SE1.3 kmh SE 2.0 mph3.2 kmh 30.02 in1016.6 mb 0.00 in0.0 mm 0.00 in0.0 mm 0.06 in1.5 mm
03:05 AM 55.0°F12.8°C 52.8°F11.6°C 92% 1.3 mph SSE2.1 kmh SSE 2.0 mph3.2 kmh 30.01 in1016.3 mb 0.00 in0.0 mm 0.00 in0.0 mm 0.06 in1.5 mm
03:10 AM 55.0°F12.8°C 52.8°F11.6°C 92% 0.6 mph SSE1.0 kmh SSE 1.3 mph2.1 kmh 30.01 in1016.3 mb 0.00 in0.0 mm 0.00 in0.0 mm 0.06 in1.5 mm
03:15 AM 55.0°F12.8°C 52.8°F11.6°C 92% 0.7 mph SE1.1 kmh SE 1.6 mph2.6 kmh 30.01 in1016.3 mb 0.00 in0.0 mm 0.00 in0.0 mm 0.06 in1.5 mm
03:20 AM 55.0°F12.8°C 52.8°F11.6°C 92% 0.7 mph SE1.1 kmh SE 1.6 mph2.6 kmh 30.01 in1016.3 mb 0.00 in0.0 mm 0.00 in0.0 mm 0.06 in1.5 mm
03:25 AM 55.0°F12.8°C 52.8°F11.6°C 92% Calm Calm -- 30.01 in1016.3 mb 0.00 in0.0 mm 0.00 in0.0 mm 0.06 in1.5 mm
03:30 AM 55.0°F12.8°C 52.8°F11.6°C 92% Calm Calm -- 30.01 in1016.3 mb 0.00 in0.0 mm 0.00 in0.0 mm 0.06 in1.5 mm
03:35 AM 55.0°F12.8°C 52.8°F11.6°C 92% Calm Calm -- 30.01 in1016.3 mb 0.00 in0.0 mm 0.00 in0.0 mm 0.06 in1.5 mm
03:37 AM 55.0°F12.8°C 52.8°F11.6°C 92% Calm Calm -- 30.01 in1016.3 mb 0.00 in0.0 mm 0.00 in0.0 mm 0.08 in2.0 mm
03:40 AM 54.9°F12.7°C 52.6°F11.4°C 92% Calm Calm -- 30.01 in1016.3 mb 0.00 in0.0 mm 0.00 in0.0 mm 0.06 in1.5 mm
03:45 AM 54.9°F12.7°C 52.6°F11.4°C 92% Calm Calm -- 30.01 in1016.3 mb 0.00 in0.0 mm 0.00 in0.0 mm 0.06 in1.5 mm
03:50 AM 54.9°F12.7°C 52.6°F11.4°C 92% Calm Calm -- 30.01 in1016.3 mb 0.00 in0.0 mm 0.00 in0.0 mm 0.06 in1.5 mm
03:55 AM 54.9°F12.7°C 52.6°F11.4°C 92% 0.1 mph ESE0.2 kmh ESE 0.7 mph1.1 kmh 30.01 in1016.3 mb 0.00 in0.0 mm 0.00 in0.0 mm 0.06 in1.5 mm
04:00 AM 54.9°F12.7°C 52.6°F11.4°C 92% 0.1 mph ESE0.2 kmh ESE 0.7 mph1.1 kmh 30.01 in1016.3 mb 0.00 in0.0 mm 0.00 in0.0 mm 0.06 in1.5 mm
04:05 AM 54.9°F12.7°C 52.6°F11.4°C 92% Calm Calm 0.7 mph1.1 kmh 30.01 in1016.3 mb 0.00 in0.0 mm 0.00 in0.0 mm 0.06 in1.5 mm
04:10 AM 54.9°F12.7°C 52.6°F11.4°C 92% Calm Calm -- 30.01 in1016.3 mb 0.00 in0.0 mm 0.00 in0.0 mm 0.06 in1.5 mm
04:15 AM 54.9°F12.7°C 52.6°F11.4°C 92% Calm Calm -- 30.01 in1016.3 mb 0.00 in0.0 mm 0.00 in0.0 mm 0.06 in1.5 mm
04:20 AM 54.9°F12.7°C 52.6°F11.4°C 92% Calm Calm -- 30.01 in1016.3 mb 0.00 in0.0 mm 0.00 in0.0 mm 0.06 in1.5 mm
04:25 AM 54.7°F12.6°C 52.4°F11.3°C 92% Calm Calm -- 30.01 in1016.3 mb 0.00 in0.0 mm 0.00 in0.0 mm 0.06 in1.5 mm
04:30 AM 54.9°F12.7°C 52.6°F11.4°C 92% Calm Calm -- 30.01 in1016.3 mb 0.00 in0.0 mm 0.00 in0.0 mm 0.06 in1.5 mm
04:35 AM 54.9°F12.7°C 52.6°F11.4°C 92% Calm Calm -- 30.01 in1016.3 mb 0.00 in0.0 mm 0.00 in0.0 mm 0.06 in1.5 mm
04:37 AM 54.9°F12.7°C 52.6°F11.4°C 92% Calm Calm -- 30.01 in1016.3 mb 0.00 in0.0 mm 0.00 in0.0 mm 0.08 in2.0 mm
04:40 AM 54.9°F12.7°C 52.6°F11.4°C 92% Calm Calm -- 30.02 in1016.6 mb 0.00 in0.0 mm 0.00 in0.0 mm 0.06 in1.5 mm
04:45 AM 54.7°F12.6°C 52.4°F11.3°C 92% Calm Calm -- 30.02 in1016.6 mb 0.00 in0.0 mm 0.00 in0.0 mm 0.06 in1.5 mm
04:50 AM 54.7°F12.6°C 52.4°F11.3°C 92% Calm Calm -- 30.02 in1016.6 mb 0.00 in0.0 mm 0.00 in0.0 mm 0.06 in1.5 mm
04:55 AM 54.9°F12.7°C 52.6°F11.4°C 92% Calm Calm -- 30.02 in1016.6 mb 0.00 in0.0 mm 0.00 in0.0 mm 0.06 in1.5 mm
05:00 AM 54.7°F12.6°C 52.4°F11.3°C 92% Calm Calm -- 30.02 in1016.6 mb 0.00 in0.0 mm 0.00 in0.0 mm 0.06 in1.5 mm
05:05 AM 54.9°F12.7°C 52.6°F11.4°C 92% Calm Calm -- 30.02 in1016.6 mb 0.00 in0.0 mm 0.00 in0.0 mm 0.06 in1.5 mm
05:10 AM 54.9°F12.7°C 52.6°F11.4°C 92% Calm Calm -- 30.01 in1016.3 mb 0.00 in0.0 mm 0.00 in0.0 mm 0.06 in1.5 mm
05:15 AM 54.9°F12.7°C 52.6°F11.4°C 92% Calm Calm -- 30.02 in1016.6 mb 0.00 in0.0 mm 0.00 in0.0 mm 0.06 in1.5 mm
05:20 AM 54.7°F12.6°C 52.4°F11.3°C 92% Calm Calm -- 30.02 in1016.6 mb 0.00 in0.0 mm 0.00 in0.0 mm 0.06 in1.5 mm
05:25 AM 54.7°F12.6°C 52.4°F11.3°C 92% Calm Calm -- 30.02 in1016.6 mb 0.00 in0.0 mm 0.00 in0.0 mm 0.06 in1.5 mm
05:30 AM 54.7°F12.6°C 52.4°F11.3°C 92% Calm Calm -- 30.02 in1016.6 mb 0.00 in0.0 mm 0.00 in0.0 mm 0.06 in1.5 mm
05:35 AM 54.7°F12.6°C 52.4°F11.3°C 92% Calm Calm -- 30.02 in1016.6 mb 0.00 in0.0 mm 0.00 in0.0 mm 0.06 in1.5 mm
05:37 AM 54.7°F12.6°C 52.4°F11.3°C 92% Calm Calm -- 30.02 in1016.6 mb 0.00 in0.0 mm 0.00 in0.0 mm 0.08 in2.0 mm
05:40 AM 54.7°F12.6°C 52.4°F11.3°C 92% Calm Calm -- 30.02 in1016.6 mb 0.00 in0.0 mm 0.00 in0.0 mm 0.06 in1.5 mm
05:45 AM 54.7°F12.6°C 52.4°F11.3°C 92% Calm Calm -- 30.02 in1016.6 mb 0.00 in0.0 mm 0.00 in0.0 mm 0.06 in1.5 mm
05:50 AM 54.5°F12.5°C 52.2°F11.2°C 92% 0.4 mph SE0.6 kmh SE 1.3 mph2.1 kmh 30.02 in1016.6 mb 0.00 in0.0 mm 0.00 in0.0 mm 0.06 in1.5 mm
05:55 AM 54.5°F12.5°C 52.2°F11.2°C 92% 0.8 mph SE1.3 kmh SE 1.3 mph2.1 kmh 30.02 in1016.6 mb 0.00 in0.0 mm 0.00 in0.0 mm 0.06 in1.5 mm
06:00 AM 54.5°F12.5°C 52.2°F11.2°C 92% 0.7 mph SSE1.1 kmh SSE 0.9 mph1.4 kmh 30.02 in1016.6 mb 0.00 in0.0 mm 0.00 in0.0 mm 0.06 in1.5 mm
06:05 AM 54.5°F12.5°C 52.2°F11.2°C 92% 0.2 mph SSE0.3 kmh SSE 0.9 mph1.4 kmh 30.02 in1016.6 mb 0.00 in0.0 mm 0.00 in0.0 mm 0.06 in1.5 mm
06:10 AM 54.5°F12.5°C 52.2°F11.2°C 92% Calm Calm -- 30.02 in1016.6 mb 0.00 in0.0 mm 0.00 in0.0 mm 0.06 in1.5 mm
06:15 AM 54.5°F12.5°C 52.2°F11.2°C 92% 0.4 mph SSE0.6 kmh SSE 1.6 mph2.6 kmh 30.02 in1016.6 mb 0.00 in0.0 mm 0.00 in0.0 mm 0.06 in1.5 mm
06:20 AM 54.3°F12.4°C 52.0°F11.1°C 92% 0.7 mph SSE1.1 kmh SSE 1.6 mph2.6 kmh 30.02 in1016.6 mb 0.00 in0.0 mm 0.00 in0.0 mm 0.06 in1.5 mm
06:25 AM 54.3°F12.4°C 52.0°F11.1°C 92% 0.3 mph SSE0.5 kmh SSE 1.6 mph2.6 kmh 30.02 in1016.6 mb 0.00 in0.0 mm 0.00 in0.0 mm 0.06 in1.5 mm
06:30 AM 54.3°F12.4°C 52.0°F11.1°C 92% 0.4 mph SSE0.6 kmh SSE 0.9 mph1.4 kmh 30.02 in1016.6 mb 0.00 in0.0 mm 0.00 in0.0 mm 0.06 in1.5 mm
06:35 AM 54.3°F12.4°C 52.0°F11.1°C 92% 0.9 mph SSE1.4 kmh SSE 0.9 mph1.4 kmh 30.02 in1016.6 mb 0.00 in0.0 mm 0.00 in0.0 mm 0.06 in1.5 mm
06:37 AM 54.3°F12.4°C 52.0°F11.1°C 92% 0.9 mph SSE1.4 kmh SSE 0.9 mph1.4 kmh 30.02 in1016.6 mb 0.00 in0.0 mm 0.00 in0.0 mm 0.08 in2.0 mm
06:40 AM 54.3°F12.4°C 52.0°F11.1°C 92% 0.6 mph SSE1.0 kmh SSE 0.9 mph1.4 kmh 30.01 in1016.3 mb 0.00 in0.0 mm 0.00 in0.0 mm 0.06 in1.5 mm
06:45 AM 54.3°F12.4°C 52.0°F11.1°C 92% 0.1 mph SSE0.2 kmh SSE 0.9 mph1.4 kmh 30.02 in1016.6 mb 0.00 in0.0 mm 0.00 in0.0 mm 0.06 in1.5 mm
06:50 AM 54.5°F12.5°C 52.2°F11.2°C 92% Calm Calm -- 30.01 in1016.3 mb 0.00 in0.0 mm 0.00 in0.0 mm 0.06 in1.5 mm
06:55 AM 54.5°F12.5°C 52.2°F11.2°C 92% Calm Calm -- 30.01 in1016.3 mb 0.00 in0.0 mm 0.00 in0.0 mm 0.06 in1.5 mm
07:00 AM 54.5°F12.5°C 52.2°F11.2°C 92% Calm Calm -- 30.01 in1016.3 mb 0.00 in0.0 mm 0.00 in0.0 mm 0.06 in1.5 mm
07:05 AM 54.7°F12.6°C 52.4°F11.3°C 92% Calm Calm -- 30.02 in1016.6 mb 0.00 in0.0 mm 0.00 in0.0 mm 0.06 in1.5 mm
07:10 AM 54.9°F12.7°C 52.6°F11.4°C 92% 0.2 mph S0.3 kmh S 1.1 mph1.8 kmh 30.01 in1016.3 mb 0.00 in0.0 mm 0.00 in0.0 mm 0.06 in1.5 mm
07:15 AM 54.9°F12.7°C 52.6°F11.4°C 92% 0.4 mph SW0.6 kmh SW 1.1 mph1.8 kmh 30.01 in1016.3 mb 0.00 in0.0 mm 0.00 in0.0 mm 0.06 in1.5 mm
07:20 AM 54.9°F12.7°C 52.6°F11.4°C 92% 0.2 mph WSW0.3 kmh WSW 1.1 mph1.8 kmh 30.01 in1016.3 mb 0.00 in0.0 mm 0.00 in0.0 mm 0.06 in1.5 mm
07:25 AM 55.0°F12.8°C 53.1°F11.7°C 93% 0.3 mph S0.5 kmh S 1.6 mph2.6 kmh 30.01 in1016.3 mb 0.00 in0.0 mm 0.00 in0.0 mm 0.06 in1.5 mm
07:30 AM 55.0°F12.8°C 53.1°F11.7°C 93% 0.3 mph S0.5 kmh S 1.6 mph2.6 kmh 30.02 in1016.6 mb 0.00 in0.0 mm 0.00 in0.0 mm 0.06 in1.5 mm
07:35 AM 55.2°F12.9°C 53.2°F11.8°C 93% 0.5 mph SSE0.8 kmh SSE 3.6 mph5.8 kmh 30.02 in1016.6 mb 0.00 in0.0 mm 0.00 in0.0 mm 0.06 in1.5 mm
07:37 AM 55.2°F12.9°C 53.2°F11.8°C 93% 3.6 mph SSE5.8 kmh SSE 3.6 mph5.8 kmh 30.02 in1016.6 mb 0.00 in0.0 mm 0.00 in0.0 mm 0.08 in2.0 mm
07:40 AM 55.2°F12.9°C 53.2°F11.8°C 93% 1.3 mph SE2.1 kmh SE 3.6 mph5.8 kmh 30.02 in1016.6 mb 0.00 in0.0 mm 0.00 in0.0 mm 0.06 in1.5 mm
07:45 AM 55.0°F12.8°C 53.1°F11.7°C 93% 1.7 mph ESE2.7 kmh ESE 4.7 mph7.6 kmh 30.02 in1016.6 mb 0.00 in0.0 mm 0.00 in0.0 mm 0.06 in1.5 mm
07:50 AM 55.0°F12.8°C 53.1°F11.7°C 93% 3.1 mph S5.0 kmh S 4.7 mph7.6 kmh 30.03 in1016.9 mb 0.00 in0.0 mm 0.00 in0.0 mm 0.06 in1.5 mm
07:55 AM 55.2°F12.9°C 53.2°F11.8°C 93% 3.1 mph S5.0 kmh S 4.7 mph7.6 kmh 30.02 in1016.6 mb 0.00 in0.0 mm 0.00 in0.0 mm 0.06 in1.5 mm
08:00 AM 55.2°F12.9°C 53.2°F11.8°C 93% 1.0 mph SE1.6 kmh SE 4.7 mph7.6 kmh 30.02 in1016.6 mb 0.00 in0.0 mm 0.00 in0.0 mm 0.06 in1.5 mm
08:05 AM 55.2°F12.9°C 53.2°F11.8°C 93% 0.5 mph NE0.8 kmh NE 1.6 mph2.6 kmh 30.03 in1016.9 mb 0.00 in0.0 mm 0.00 in0.0 mm 0.06 in1.5 mm
08:10 AM 55.0°F12.8°C 53.1°F11.7°C 93% 0.1 mph NE0.2 kmh NE 0.7 mph1.1 kmh 30.02 in1016.6 mb 0.00 in0.0 mm 0.00 in0.0 mm 0.06 in1.5 mm
08:15 AM 55.2°F12.9°C 53.2°F11.8°C 93% 1.0 mph SE1.6 kmh SE 4.5 mph7.2 kmh 30.02 in1016.6 mb 0.00 in0.0 mm 0.00 in0.0 mm 0.06 in1.5 mm
08:20 AM 55.2°F12.9°C 53.2°F11.8°C 93% 1.0 mph SE1.6 kmh SE 4.5 mph7.2 kmh 30.02 in1016.6 mb 0.00 in0.0 mm 0.00 in0.0 mm 0.06 in1.5 mm
08:25 AM 55.2°F12.9°C 53.2°F11.8°C 93% 0.4 mph E0.6 kmh E 2.0 mph3.2 kmh 30.02 in1016.6 mb 0.00 in0.0 mm 0.00 in0.0 mm 0.06 in1.5 mm
08:30 AM 55.2°F12.9°C 53.2°F11.8°C 93% 1.3 mph E2.1 kmh E 2.0 mph3.2 kmh 30.02 in1016.6 mb 0.00 in0.0 mm 0.00 in0.0 mm 0.06 in1.5 mm
08:35 AM 55.2°F12.9°C 53.2°F11.8°C 93% 0.9 mph E1.4 kmh E 2.0 mph3.2 kmh 30.02 in1016.6 mb 0.00 in0.0 mm 0.00 in0.0 mm 0.06 in1.5 mm
08:37 AM 55.2°F12.9°C 53.2°F11.8°C 93% Calm Calm -- 30.02 in1016.6 mb 0.00 in0.0 mm 0.00 in0.0 mm 0.08 in2.0 mm
08:40 AM 55.2°F12.9°C 53.2°F11.8°C 93% Calm Calm -- 30.02 in1016.6 mb 0.00 in0.0 mm 0.00 in0.0 mm 0.06 in1.5 mm
08:45 AM 55.2°F12.9°C 53.2°F11.8°C 93% Calm Calm -- 30.02 in1016.6 mb 0.00 in0.0 mm 0.00 in0.0 mm 0.06 in1.5 mm
08:50 AM 55.4°F13.0°C 53.4°F11.9°C 93% 1.1 mph ESE1.8 kmh ESE 3.8 mph6.1 kmh 30.02 in1016.6 mb 0.00 in0.0 mm 0.00 in0.0 mm 0.06 in1.5 mm
08:55 AM 55.2°F12.9°C 53.2°F11.8°C 93% 2.3 mph SE3.7 kmh SE 4.0 mph6.4 kmh 30.03 in1016.9 mb 0.00 in0.0 mm 0.00 in0.0 mm 0.06 in1.5 mm
09:01 AM 55.6°F13.1°C 53.6°F12.0°C 93% 1.8 mph SE2.9 kmh SE 4.0 mph6.4 kmh 30.03 in1016.9 mb 0.00 in0.0 mm 0.00 in0.0 mm 0.06 in1.5 mm
09:05 AM 55.6°F13.1°C 53.6°F12.0°C 93% 0.6 mph E1.0 kmh E 1.3 mph2.1 kmh 30.03 in1016.9 mb 0.00 in0.0 mm 0.00 in0.0 mm 0.06 in1.5 mm
09:10 AM 55.6°F13.1°C 53.6°F12.0°C 93% 0.8 mph SSE1.3 kmh SSE 2.2 mph3.5 kmh 30.03 in1016.9 mb 0.00 in0.0 mm 0.00 in0.0 mm 0.06 in1.5 mm
09:15 AM 55.6°F13.1°C 53.6°F12.0°C 93% 1.9 mph SSE3.1 kmh SSE 2.2 mph3.5 kmh 30.03 in1016.9 mb 0.00 in0.0 mm 0.00 in0.0 mm 0.06 in1.5 mm
09:20 AM 55.6°F13.1°C 53.6°F12.0°C 93% 2.2 mph SSE3.5 kmh SSE 2.2 mph3.5 kmh 30.03 in1016.9 mb 0.00 in0.0 mm 0.00 in0.0 mm 0.06 in1.5 mm
09:25 AM 55.6°F13.1°C 53.6°F12.0°C 93% 2.1 mph SSE3.4 kmh SSE 2.2 mph3.5 kmh 30.03 in1016.9 mb 0.00 in0.0 mm 0.00 in0.0 mm 0.06 in1.5 mm
09:30 AM 55.6°F13.1°C 53.6°F12.0°C 93% 1.7 mph SW2.7 kmh SW 2.2 mph3.5 kmh 30.03 in1016.9 mb 0.00 in0.0 mm 0.00 in0.0 mm 0.06 in1.5 mm
09:35 AM 55.8°F13.2°C 53.8°F12.1°C 93% 1.3 mph NW2.1 kmh NW 1.3 mph2.1 kmh 30.03 in1016.9 mb 0.00 in0.0 mm 0.00 in0.0 mm 0.06 in1.5 mm
09:37 AM 55.8°F13.2°C 53.8°F12.1°C 93% 1.3 mph NW2.1 kmh NW 1.3 mph2.1 kmh 30.03 in1016.9 mb 0.00 in0.0 mm 0.00 in0.0 mm 0.08 in2.0 mm
09:40 AM 55.9°F13.3°C 53.9°F12.2°C 93% 1.1 mph NW1.8 kmh NW 2.0 mph3.2 kmh 30.03 in1016.9 mb 0.00 in0.0 mm 0.00 in0.0 mm 0.06 in1.5 mm
09:45 AM 55.8°F13.2°C 53.8°F12.1°C 93% 1.5 mph WSW2.4 kmh WSW 2.0 mph3.2 kmh 30.03 in1016.9 mb 0.00 in0.0 mm 0.00 in0.0 mm 0.06 in1.5 mm
09:50 AM 55.8°F13.2°C 53.8°F12.1°C 93% 1.9 mph WSW3.1 kmh WSW 2.0 mph3.2 kmh 30.03 in1016.9 mb 0.00 in0.0 mm 0.00 in0.0 mm 0.06 in1.5 mm
09:55 AM 55.8°F13.2°C 53.8°F12.1°C 93% 0.9 mph SSW1.4 kmh SSW 2.0 mph3.2 kmh 30.03 in1016.9 mb 0.00 in0.0 mm 0.00 in0.0 mm 0.06 in1.5 mm
10:00 AM 55.8°F13.2°C 53.8°F12.1°C 93% Calm Calm -- 30.03 in1016.9 mb 0.00 in0.0 mm 0.00 in0.0 mm 0.06 in1.5 mm
10:05 AM 55.8°F13.2°C 53.8°F12.1°C 93% 0.4 mph S0.6 kmh S 2.0 mph3.2 kmh 30.03 in1016.9 mb 0.00 in0.0 mm 0.00 in0.0 mm 0.06 in1.5 mm
10:10 AM 55.8°F13.2°C 53.8°F12.1°C 93% 1.0 mph S1.6 kmh S 2.0 mph3.2 kmh 30.03 in1016.9 mb 0.00 in0.0 mm 0.00 in0.0 mm 0.06 in1.5 mm
10:15 AM 55.6°F13.1°C 53.6°F12.0°C 93% 0.5 mph SE0.8 kmh SE 2.0 mph3.2 kmh 30.03 in1016.9 mb 0.00 in0.0 mm 0.00 in0.0 mm 0.06 in1.5 mm
10:20 AM 55.8°F13.2°C 53.5°F11.9°C 92% 0.3 mph SSE0.5 kmh SSE 4.7 mph7.6 kmh 30.02 in1016.6 mb 0.00 in0.0 mm 0.00 in0.0 mm 0.06 in1.5 mm
10:25 AM 55.8°F13.2°C 53.5°F11.9°C 92% 1.8 mph SE2.9 kmh SE 4.7 mph7.6 kmh 30.02 in1016.6 mb 0.02 in0.5 mm 0.24 in6.1 mm 0.08 in2.0 mm
10:30 AM 55.8°F13.2°C 53.5°F11.9°C 92% 1.8 mph SE2.9 kmh SE 4.7 mph7.6 kmh 30.02 in1016.6 mb 0.02 in0.5 mm 0.00 in0.0 mm 0.08 in2.0 mm
10:35 AM 55.8°F13.2°C 53.8°F12.1°C 93% 1.1 mph ENE1.8 kmh ENE 6.7 mph10.8 kmh 30.02 in1016.6 mb 0.02 in0.5 mm 0.00 in0.0 mm 0.08 in2.0 mm
10:37 AM 55.8°F13.2°C 53.8°F12.1°C 93% 6.7 mph ESE10.8 kmh ESE 6.7 mph10.8 kmh 30.02 in1016.6 mb 0.02 in0.5 mm 0.00 in0.0 mm 0.10 in2.5 mm
10:40 AM 55.8°F13.2°C 53.5°F11.9°C 92% 2.0 mph E3.2 kmh E 6.7 mph10.8 kmh 30.02 in1016.6 mb 0.02 in0.5 mm 0.00 in0.0 mm 0.08 in2.0 mm
10:45 AM 55.8°F13.2°C 53.5°F11.9°C 92% 2.0 mph SE3.2 kmh SE 6.7 mph10.8 kmh 30.02 in1016.6 mb 0.02 in0.5 mm 0.00 in0.0 mm 0.08 in2.0 mm
10:50 AM 55.8°F13.2°C 53.5°F11.9°C 92% 3.1 mph SE5.0 kmh SE 7.6 mph12.2 kmh 30.02 in1016.6 mb 0.02 in0.5 mm 0.00 in0.0 mm 0.08 in2.0 mm
10:55 AM 55.8°F13.2°C 53.5°F11.9°C 92% 4.1 mph SE6.6 kmh SE 7.6 mph12.2 kmh 30.02 in1016.6 mb 0.02 in0.5 mm 0.00 in0.0 mm 0.08 in2.0 mm
11:00 AM 55.8°F13.2°C 53.8°F12.1°C 93% 2.5 mph ESE4.0 kmh ESE 4.9 mph7.9 kmh 30.01 in1016.3 mb 0.02 in0.5 mm 0.00 in0.0 mm 0.08 in2.0 mm
11:05 AM 55.8°F13.2°C 53.8°F12.1°C 93% 0.8 mph N1.3 kmh N 2.0 mph3.2 kmh 30.01 in1016.3 mb 0.02 in0.5 mm 0.00 in0.0 mm 0.08 in2.0 mm
11:10 AM 55.8°F13.2°C 53.8°F12.1°C 93% 1.0 mph E1.6 kmh E 2.0 mph3.2 kmh 30.01 in1016.3 mb 0.02 in0.5 mm 0.00 in0.0 mm 0.08 in2.0 mm
11:15 AM 55.9°F13.3°C 53.9°F12.2°C 93% 1.6 mph E2.6 kmh E 2.0 mph3.2 kmh 30.01 in1016.3 mb 0.02 in0.5 mm 0.00 in0.0 mm 0.08 in2.0 mm
11:20 AM 55.9°F13.3°C 53.9°F12.2°C 93% 0.7 mph ESE1.1 kmh ESE 1.6 mph2.6 kmh 30.01 in1016.3 mb 0.02 in0.5 mm 0.00 in0.0 mm 0.08 in2.0 mm
11:25 AM 55.9°F13.3°C 53.9°F12.2°C 93% Calm Calm 1.3 mph2.1 kmh 30.00 in1015.9 mb 0.00 in0.0 mm 0.00 in0.0 mm 0.08 in2.0 mm
11:30 AM 56.1°F13.4°C 54.1°F12.3°C 93% 0.6 mph SE1.0 kmh SE 2.0 mph3.2 kmh 30.00 in1015.9 mb 0.00 in0.0 mm 0.00 in0.0 mm 0.08 in2.0 mm
11:35 AM 56.1°F13.4°C 54.1°F12.3°C 93% 3.2 mph SSE5.1 kmh SSE 9.8 mph15.8 kmh 30.00 in1015.9 mb 0.00 in0.0 mm 0.00 in0.0 mm 0.08 in2.0 mm
11:37 AM 56.1°F13.4°C 54.1°F12.3°C 93% 1.3 mph NNW2.1 kmh NNW 1.3 mph2.1 kmh 30.00 in1015.9 mb 0.00 in0.0 mm 0.00 in0.0 mm 0.10 in2.5 mm
11:40 AM 56.1°F13.4°C 54.1°F12.3°C 93% 3.4 mph SE5.5 kmh SE 9.8 mph15.8 kmh 30.00 in1015.9 mb 0.00 in0.0 mm 0.00 in0.0 mm 0.08 in2.0 mm
11:45 AM 56.3°F13.5°C 54.3°F12.4°C 93% 2.5 mph ENE4.0 kmh ENE 5.4 mph8.7 kmh 30.00 in1015.9 mb 0.00 in0.0 mm 0.00 in0.0 mm 0.08 in2.0 mm
11:50 AM 56.3°F13.5°C 54.3°F12.4°C 93% 2.0 mph E3.2 kmh E 5.4 mph8.7 kmh 30.00 in1015.9 mb 0.00 in0.0 mm 0.00 in0.0 mm 0.08 in2.0 mm
11:55 AM 56.5°F13.6°C 54.5°F12.5°C 93% 1.1 mph E1.8 kmh E 3.1 mph5.0 kmh 29.99 in1015.6 mb 0.00 in0.0 mm 0.00 in0.0 mm 0.08 in2.0 mm
12:00 PM 56.5°F13.6°C 54.5°F12.5°C 93% 1.5 mph SW2.4 kmh SW 3.1 mph5.0 kmh 29.99 in1015.6 mb 0.00 in0.0 mm 0.00 in0.0 mm 0.08 in2.0 mm
12:05 PM 56.5°F13.6°C 54.5°F12.5°C 93% 0.8 mph SSE1.3 kmh SSE 3.1 mph5.0 kmh 29.99 in1015.6 mb 0.00 in0.0 mm 0.00 in0.0 mm 0.08 in2.0 mm
12:10 PM 56.7°F13.7°C 54.7°F12.6°C 93% Calm Calm -- 29.99 in1015.6 mb 0.00 in0.0 mm 0.00 in0.0 mm 0.08 in2.0 mm
12:15 PM 56.7°F13.7°C 54.7°F12.6°C 93% 0.6 mph E1.0 kmh E 3.1 mph5.0 kmh 30.00 in1015.9 mb 0.00 in0.0 mm 0.00 in0.0 mm 0.08 in2.0 mm
12:20 PM 56.8°F13.8°C 54.8°F12.7°C 93% 0.8 mph E1.3 kmh E 3.1 mph5.0 kmh 29.99 in1015.6 mb 0.00 in0.0 mm 0.00 in0.0 mm 0.08 in2.0 mm
12:25 PM 57.0°F13.9°C 55.0°F12.8°C 93% 3.2 mph ESE5.1 kmh ESE 7.4 mph11.9 kmh 29.98 in1015.2 mb 0.00 in0.0 mm 0.00 in0.0 mm 0.08 in2.0 mm
12:30 PM 57.0°F13.9°C 55.0°F12.8°C 93% 4.6 mph E7.4 kmh E 7.4 mph11.9 kmh 29.98 in1015.2 mb 0.00 in0.0 mm 0.00 in0.0 mm 0.08 in2.0 mm
12:35 PM 57.4°F14.1°C 55.4°F13.0°C 93% 2.0 mph E3.2 kmh E 7.4 mph11.9 kmh 29.98 in1015.2 mb 0.00 in0.0 mm 0.00 in0.0 mm 0.08 in2.0 mm
12:37 PM 57.4°F14.1°C 55.4°F13.0°C 93% 4.7 mph ESE7.6 kmh ESE 4.7 mph7.6 kmh 29.98 in1015.2 mb 0.00 in0.0 mm 0.00 in0.0 mm 0.10 in2.5 mm
12:40 PM 57.4°F14.1°C 55.4°F13.0°C 93% 1.5 mph E2.4 kmh E 4.7 mph7.6 kmh 29.99 in1015.6 mb 0.00 in0.0 mm 0.00 in0.0 mm 0.08 in2.0 mm
12:45 PM 57.6°F14.2°C 55.6°F13.1°C 93% 1.7 mph E2.7 kmh E 4.7 mph7.6 kmh 29.98 in1015.2 mb 0.00 in0.0 mm 0.00 in0.0 mm 0.08 in2.0 mm
12:50 PM 57.6°F14.2°C 55.6°F13.1°C 93% 1.7 mph ESE2.7 kmh ESE 2.2 mph3.5 kmh 29.98 in1015.2 mb 0.00 in0.0 mm 0.00 in0.0 mm 0.08 in2.0 mm
12:55 PM 57.6°F14.2°C 55.6°F13.1°C 93% 2.6 mph SE4.2 kmh SE 7.6 mph12.2 kmh 29.98 in1015.2 mb 0.00 in0.0 mm 0.00 in0.0 mm 0.08 in2.0 mm
01:00 PM 57.6°F14.2°C 55.6°F13.1°C 93% 2.4 mph SE3.9 kmh SE 7.6 mph12.2 kmh 29.98 in1015.2 mb 0.00 in0.0 mm 0.00 in0.0 mm 0.08 in2.0 mm
01:05 PM 57.4°F14.1°C 55.4°F13.0°C 93% 0.9 mph ESE1.4 kmh ESE 7.6 mph12.2 kmh 29.97 in1014.9 mb 0.00 in0.0 mm 0.00 in0.0 mm 0.08 in2.0 mm
01:10 PM 57.4°F14.1°C 55.4°F13.0°C 93% 0.4 mph SSE0.6 kmh SSE 2.5 mph4.0 kmh 29.98 in1015.2 mb 0.00 in0.0 mm 0.00 in0.0 mm 0.08 in2.0 mm
01:15 PM 57.4°F14.1°C 55.1°F12.8°C 92% 1.5 mph SSE2.4 kmh SSE 2.9 mph4.7 kmh 29.99 in1015.6 mb 0.00 in0.0 mm 0.00 in0.0 mm 0.08 in2.0 mm
01:20 PM 57.4°F14.1°C 55.1°F12.8°C 92% 1.8 mph SE2.9 kmh SE 3.8 mph6.1 kmh 29.98 in1015.2 mb 0.00 in0.0 mm 0.00 in0.0 mm 0.08 in2.0 mm
01:25 PM 57.4°F14.1°C 55.1°F12.8°C 92% 1.1 mph SE1.8 kmh SE 3.8 mph6.1 kmh 29.98 in1015.2 mb 0.00 in0.0 mm 0.00 in0.0 mm 0.08 in2.0 mm
01:30 PM 57.4°F14.1°C 55.1°F12.8°C 92% 0.5 mph SE0.8 kmh SE 3.8 mph6.1 kmh 29.98 in1015.2 mb 0.00 in0.0 mm 0.00 in0.0 mm 0.08 in2.0 mm
01:35 PM 57.4°F14.1°C 55.1°F12.8°C 92% 0.2 mph ESE0.3 kmh ESE 2.9 mph4.7 kmh 29.97 in1014.9 mb 0.00 in0.0 mm 0.00 in0.0 mm 0.08 in2.0 mm
01:37 PM 57.4°F14.1°C 55.1°F12.8°C 92% 2.9 mph ESE4.7 kmh ESE 2.9 mph4.7 kmh 29.97 in1014.9 mb 0.00 in0.0 mm 0.00 in0.0 mm 0.08 in2.0 mm
01:40 PM 57.4°F14.1°C 55.1°F12.8°C 92% 0.9 mph SE1.4 kmh SE 2.9 mph4.7 kmh 29.97 in1014.9 mb 0.00 in0.0 mm 0.00 in0.0 mm 0.08 in2.0 mm
01:45 PM 57.4°F14.1°C 55.1°F12.8°C 92% 0.7 mph SE1.1 kmh SE 2.9 mph4.7 kmh 29.97 in1014.9 mb 0.00 in0.0 mm 0.00 in0.0 mm 0.08 in2.0 mm
01:50 PM 57.6°F14.2°C 55.3°F12.9°C 92% 1.9 mph NE3.1 kmh NE 8.9 mph14.3 kmh 29.97 in1014.9 mb 0.00 in0.0 mm 0.00 in0.0 mm 0.08 in2.0 mm
01:55 PM 57.7°F14.3°C 55.4°F13.0°C 92% 2.9 mph NNE4.7 kmh NNE 8.9 mph14.3 kmh 29.96 in1014.6 mb 0.00 in0.0 mm 0.00 in0.0 mm 0.08 in2.0 mm
02:00 PM 57.9°F14.4°C 55.6°F13.1°C 92% 1.8 mph N2.9 kmh N 3.8 mph6.1 kmh 29.96 in1014.6 mb 0.00 in0.0 mm 0.00 in0.0 mm 0.08 in2.0 mm
02:05 PM 57.9°F14.4°C 55.6°F13.1°C 92% 2.3 mph NE3.7 kmh NE 3.8 mph6.1 kmh 29.96 in1014.6 mb 0.00 in0.0 mm 0.00 in0.0 mm 0.08 in2.0 mm
02:10 PM 57.9°F14.4°C 55.6°F13.1°C 92% 3.3 mph E5.3 kmh E 10.3 mph16.6 kmh 29.95 in1014.2 mb 0.00 in0.0 mm 0.00 in0.0 mm 0.08 in2.0 mm
02:15 PM 57.9°F14.4°C 55.6°F13.1°C 92% 3.2 mph E5.1 kmh E 10.3 mph16.6 kmh 29.95 in1014.2 mb 0.00 in0.0 mm 0.00 in0.0 mm 0.08 in2.0 mm
02:20 PM 58.1°F14.5°C 55.8°F13.2°C 92% 2.4 mph NNE3.9 kmh NNE 10.3 mph16.6 kmh 29.95 in1014.2 mb 0.00 in0.0 mm 0.00 in0.0 mm 0.08 in2.0 mm
02:25 PM 58.3°F14.6°C 56.0°F13.3°C 92% 1.5 mph N2.4 kmh N 2.0 mph3.2 kmh 29.95 in1014.2 mb 0.00 in0.0 mm 0.00 in0.0 mm 0.08 in2.0 mm
02:30 PM 58.3°F14.6°C 56.0°F13.3°C 92% 0.8 mph NNE1.3 kmh NNE 1.6 mph2.6 kmh 29.96 in1014.6 mb 0.00 in0.0 mm 0.00 in0.0 mm 0.08 in2.0 mm
02:35 PM 58.5°F14.7°C 56.1°F13.4°C 92% 1.0 mph N1.6 kmh N 1.8 mph2.9 kmh 29.96 in1014.6 mb 0.00 in0.0 mm 0.00 in0.0 mm 0.08 in2.0 mm
02:37 PM 58.5°F14.7°C 56.1°F13.4°C 92% 1.8 mph NE2.9 kmh NE 1.8 mph2.9 kmh 29.96 in1014.6 mb 0.00 in0.0 mm 0.00 in0.0 mm 0.08 in2.0 mm
02:40 PM 58.6°F14.8°C 56.3°F13.5°C 92% 1.3 mph NE2.1 kmh NE 1.8 mph2.9 kmh 29.95 in1014.2 mb 0.00 in0.0 mm 0.00 in0.0 mm 0.08 in2.0 mm
02:45 PM 58.8°F14.9°C 56.5°F13.6°C 92% 1.1 mph N1.8 kmh N 2.0 mph3.2 kmh 29.95 in1014.2 mb 0.00 in0.0 mm 0.00 in0.0 mm 0.08 in2.0 mm
02:50 PM 58.8°F14.9°C 56.5°F13.6°C 92% 0.9 mph WNW1.4 kmh WNW 2.0 mph3.2 kmh 29.95 in1014.2 mb 0.00 in0.0 mm 0.00 in0.0 mm 0.08 in2.0 mm
02:55 PM 58.8°F14.9°C 56.5°F13.6°C 92% 1.1 mph NW1.8 kmh NW 2.2 mph3.5 kmh 29.94 in1013.9 mb 0.00 in0.0 mm 0.00 in0.0 mm 0.08 in2.0 mm
03:00 PM 59.0°F15.0°C 56.7°F13.7°C 92% 0.8 mph NNW1.3 kmh NNW 2.2 mph3.5 kmh 29.95 in1014.2 mb 0.00 in0.0 mm 0.00 in0.0 mm 0.08 in2.0 mm
03:05 PM 58.8°F14.9°C 56.5°F13.6°C 92% 0.3 mph NW0.5 kmh NW 2.2 mph3.5 kmh 29.95 in1014.2 mb 0.00 in0.0 mm 0.00 in0.0 mm 0.08 in2.0 mm
03:10 PM 58.8°F14.9°C 56.5°F13.6°C 92% 1.0 mph NW1.6 kmh NW 2.2 mph3.5 kmh 29.94 in1013.9 mb 0.00 in0.0 mm 0.00 in0.0 mm 0.08 in2.0 mm
03:15 PM 59.0°F15.0°C 56.7°F13.7°C 92% 1.2 mph NW1.9 kmh NW 2.2 mph3.5 kmh 29.94 in1013.9 mb 0.00 in0.0 mm 0.00 in0.0 mm 0.08 in2.0 mm
03:20 PM 59.2°F15.1°C 56.9°F13.8°C 92% 0.5 mph S0.8 kmh S 0.7 mph1.1 kmh 29.94 in1013.9 mb 0.00 in0.0 mm 0.00 in0.0 mm 0.08 in2.0 mm
03:25 PM 59.0°F15.0°C 56.7°F13.7°C 92% 0.1 mph S0.2 kmh S 0.7 mph1.1 kmh 29.94 in1013.9 mb 0.00 in0.0 mm 0.00 in0.0 mm 0.08 in2.0 mm
03:30 PM 59.2°F15.1°C 56.9°F13.8°C 92% 1.3 mph SSE2.1 kmh SSE 3.4 mph5.5 kmh 29.94 in1013.9 mb 0.00 in0.0 mm 0.00 in0.0 mm 0.08 in2.0 mm
03:35 PM 59.2°F15.1°C 56.9°F13.8°C 92% 1.3 mph SSE2.1 kmh SSE 3.4 mph5.5 kmh 29.93 in1013.5 mb 0.00 in0.0 mm 0.00 in0.0 mm 0.08 in2.0 mm
03:37 PM 59.2°F15.1°C 56.9°F13.8°C 92% Calm Calm -- 29.93 in1013.5 mb 0.00 in0.0 mm 0.00 in0.0 mm 0.08 in2.0 mm
03:40 PM 59.2°F15.1°C 56.9°F13.8°C 92% Calm Calm -- 29.93 in1013.5 mb 0.00 in0.0 mm 0.00 in0.0 mm 0.08 in2.0 mm
03:45 PM 59.0°F15.0°C 56.4°F13.6°C 91% 0.3 mph WNW0.5 kmh WNW 1.6 mph2.6 kmh 29.93 in1013.5 mb 0.00 in0.0 mm 0.00 in0.0 mm 0.08 in2.0 mm
03:50 PM 59.0°F15.0°C 56.4°F13.6°C 91% 0.5 mph WSW0.8 kmh WSW 2.0 mph3.2 kmh 29.93 in1013.5 mb 0.00 in0.0 mm 0.00 in0.0 mm 0.08 in2.0 mm
03:55 PM 59.0°F15.0°C 56.4°F13.6°C 91% 1.2 mph SSW1.9 kmh SSW 2.0 mph3.2 kmh 29.93 in1013.5 mb 0.00 in0.0 mm 0.00 in0.0 mm 0.08 in2.0 mm
04:00 PM 59.0°F15.0°C 56.4°F13.6°C 91% 1.9 mph S3.1 kmh S 4.0 mph6.4 kmh 29.93 in1013.5 mb 0.00 in0.0 mm 0.00 in0.0 mm 0.08 in2.0 mm
04:05 PM 58.8°F14.9°C 56.2°F13.4°C 91% 1.8 mph E2.9 kmh E 4.0 mph6.4 kmh 29.93 in1013.5 mb 0.00 in0.0 mm 0.00 in0.0 mm 0.08 in2.0 mm
04:10 PM 58.8°F14.9°C 56.2°F13.4°C 91% 1.7 mph NNW2.7 kmh NNW 4.0 mph6.4 kmh 29.93 in1013.5 mb 0.00 in0.0 mm 0.00 in0.0 mm 0.08 in2.0 mm
04:15 PM 58.8°F14.9°C 56.2°F13.4°C 91% 1.6 mph WNW2.6 kmh WNW 1.6 mph2.6 kmh 29.94 in1013.9 mb 0.00 in0.0 mm 0.00 in0.0 mm 0.08 in2.0 mm
04:20 PM 58.8°F14.9°C 56.2°F13.4°C 91% 1.6 mph WNW2.6 kmh WNW 1.6 mph2.6 kmh 29.94 in1013.9 mb 0.00 in0.0 mm 0.00 in0.0 mm 0.08 in2.0 mm
04:25 PM 58.8°F14.9°C 56.2°F13.4°C 91% 1.7 mph WNW2.7 kmh WNW 2.5 mph4.0 kmh 29.94 in1013.9 mb 0.00 in0.0 mm 0.00 in0.0 mm 0.08 in2.0 mm
04:30 PM 58.8°F14.9°C 56.2°F13.4°C 91% 2.1 mph SSE3.4 kmh SSE 4.9 mph7.9 kmh 29.94 in1013.9 mb 0.00 in0.0 mm 0.00 in0.0 mm 0.08 in2.0 mm
04:35 PM 58.8°F14.9°C 56.2°F13.4°C 91% 1.4 mph SE2.3 kmh SE 4.9 mph7.9 kmh 29.93 in1013.5 mb 0.00 in0.0 mm 0.00 in0.0 mm 0.08 in2.0 mm
04:37 PM 58.8°F14.9°C 56.2°F13.4°C 91% 2.7 mph N4.3 kmh N 2.7 mph4.3 kmh 29.93 in1013.5 mb 0.00 in0.0 mm 0.00 in0.0 mm 0.08 in2.0 mm
04:40 PM 58.6°F14.8°C 56.0°F13.3°C 91% 0.6 mph N1.0 kmh N 2.7 mph4.3 kmh 29.93 in1013.5 mb 0.02 in0.5 mm 0.40 in10.2 mm 0.10 in2.5 mm
04:45 PM 58.6°F14.8°C 56.0°F13.3°C 91% 0.3 mph N0.5 kmh N 2.7 mph4.3 kmh 29.92 in1013.2 mb 0.02 in0.5 mm 0.00 in0.0 mm 0.10 in2.5 mm
04:50 PM 58.6°F14.8°C 56.0°F13.3°C 91% 0.4 mph E0.6 kmh E 0.9 mph1.4 kmh 29.93 in1013.5 mb 0.02 in0.5 mm 0.00 in0.0 mm 0.10 in2.5 mm
04:55 PM 58.6°F14.8°C 56.0°F13.3°C 91% 1.2 mph NW1.9 kmh NW 3.1 mph5.0 kmh 29.93 in1013.5 mb 0.02 in0.5 mm 0.00 in0.0 mm 0.10 in2.5 mm
05:00 PM 58.6°F14.8°C 56.0°F13.3°C 91% 1.0 mph WNW1.6 kmh WNW 3.1 mph5.0 kmh 29.93 in1013.5 mb 0.02 in0.5 mm 0.00 in0.0 mm 0.10 in2.5 mm
05:05 PM 58.6°F14.8°C 56.0°F13.3°C 91% 0.5 mph ESE0.8 kmh ESE 3.1 mph5.0 kmh 29.94 in1013.9 mb 0.02 in0.5 mm 0.00 in0.0 mm 0.10 in2.5 mm
05:10 PM 58.6°F14.8°C 56.0°F13.3°C 91% 0.9 mph ESE1.4 kmh ESE 1.1 mph1.8 kmh 29.93 in1013.5 mb 0.02 in0.5 mm 0.00 in0.0 mm 0.10 in2.5 mm
05:15 PM 58.3°F14.6°C 55.7°F13.2°C 91% 1.1 mph ESE1.8 kmh ESE 1.1 mph1.8 kmh 29.93 in1013.5 mb 0.02 in0.5 mm 0.00 in0.0 mm 0.10 in2.5 mm
05:20 PM 58.3°F14.6°C 55.7°F13.2°C 91% 0.6 mph ESE1.0 kmh ESE 1.1 mph1.8 kmh 29.93 in1013.5 mb 0.02 in0.5 mm 0.00 in0.0 mm 0.10 in2.5 mm
05:25 PM 58.3°F14.6°C 55.7°F13.2°C 91% 0.7 mph SSE1.1 kmh SSE 1.8 mph2.9 kmh 29.93 in1013.5 mb 0.02 in0.5 mm 0.00 in0.0 mm 0.10 in2.5 mm
05:30 PM 58.3°F14.6°C 55.7°F13.2°C 91% 2.2 mph E3.5 kmh E 3.4 mph5.5 kmh 29.93 in1013.5 mb 0.02 in0.5 mm 0.00 in0.0 mm 0.10 in2.5 mm
05:35 PM 58.3°F14.6°C 56.0°F13.3°C 92% 3.3 mph E5.3 kmh E 3.4 mph5.5 kmh 29.92 in1013.2 mb 0.02 in0.5 mm 0.00 in0.0 mm 0.10 in2.5 mm
05:37 PM 58.3°F14.6°C 56.0°F13.3°C 92% 3.4 mph E5.5 kmh E 3.4 mph5.5 kmh 29.92 in1013.2 mb 0.02 in0.5 mm 0.00 in0.0 mm 0.02 in0.5 mm
05:40 PM 58.1°F14.5°C 55.8°F13.2°C 92% 2.8 mph E4.5 kmh E 3.4 mph5.5 kmh 29.92 in1013.2 mb 0.00 in0.0 mm 0.00 in0.0 mm 0.10 in2.5 mm
05:45 PM 58.1°F14.5°C 55.8°F13.2°C 92% 1.1 mph E1.8 kmh E 3.4 mph5.5 kmh 29.92 in1013.2 mb 0.00 in0.0 mm 0.00 in0.0 mm 0.10 in2.5 mm
05:50 PM 58.1°F14.5°C 55.8°F13.2°C 92% Calm Calm -- 29.91 in1012.9 mb 0.02 in0.5 mm 0.24 in6.1 mm 0.12 in3.0 mm
05:55 PM 58.1°F14.5°C 55.8°F13.2°C 92% Calm Calm -- 29.92 in1013.2 mb 0.02 in0.5 mm 0.00 in0.0 mm 0.12 in3.0 mm
06:00 PM 58.1°F14.5°C 55.8°F13.2°C 92% Calm Calm -- 29.92 in1013.2 mb 0.02 in0.5 mm 0.00 in0.0 mm 0.12 in3.0 mm
06:05 PM 57.9°F14.4°C 55.6°F13.1°C 92% 0.2 mph S0.3 kmh S 1.6 mph2.6 kmh 29.91 in1012.9 mb 0.02 in0.5 mm 0.00 in0.0 mm 0.12 in3.0 mm
06:10 PM 57.9°F14.4°C 55.6°F13.1°C 92% 0.3 mph S0.5 kmh S 1.6 mph2.6 kmh 29.91 in1012.9 mb 0.02 in0.5 mm 0.00 in0.0 mm 0.12 in3.0 mm
06:15 PM 57.9°F14.4°C 55.6°F13.1°C 92% 0.2 mph S0.3 kmh S 1.6 mph2.6 kmh 29.92 in1013.2 mb 0.02 in0.5 mm 0.00 in0.0 mm 0.12 in3.0 mm
06:20 PM 57.9°F14.4°C 55.6°F13.1°C 92% 0.4 mph N0.6 kmh N 1.3 mph2.1 kmh 29.92 in1013.2 mb 0.02 in0.5 mm 0.00 in0.0 mm 0.12 in3.0 mm
06:25 PM 57.9°F14.4°C 55.6°F13.1°C 92% 0.9 mph N1.4 kmh N 1.3 mph2.1 kmh 29.91 in1012.9 mb 0.02 in0.5 mm 0.00 in0.0 mm 0.12 in3.0 mm
06:30 PM 57.9°F14.4°C 55.6°F13.1°C 92% 0.7 mph NNE1.1 kmh NNE 1.3 mph2.1 kmh 29.92 in1013.2 mb 0.02 in0.5 mm 0.00 in0.0 mm 0.12 in3.0 mm
06:35 PM 57.9°F14.4°C 55.6°F13.1°C 92% 1.1 mph NNE1.8 kmh NNE 2.2 mph3.5 kmh 29.91 in1012.9 mb 0.02 in0.5 mm 0.00 in0.0 mm 0.12 in3.0 mm
06:37 PM 57.9°F14.4°C 55.6°F13.1°C 92% 2.2 mph N3.5 kmh N 2.2 mph3.5 kmh 29.92 in1013.2 mb 0.02 in0.5 mm 0.00 in0.0 mm 0.04 in1.0 mm
06:40 PM 57.9°F14.4°C 55.6°F13.1°C 92% 2.0 mph NNE3.2 kmh NNE 2.5 mph4.0 kmh 29.92 in1013.2 mb 0.02 in0.5 mm 0.00 in0.0 mm 0.12 in3.0 mm
06:45 PM 57.9°F14.4°C 55.6°F13.1°C 92% 1.9 mph NE3.1 kmh NE 2.7 mph4.3 kmh 29.92 in1013.2 mb 0.02 in0.5 mm 0.00 in0.0 mm 0.12 in3.0 mm
06:50 PM 57.9°F14.4°C 55.6°F13.1°C 92% 1.8 mph N2.9 kmh N 2.7 mph4.3 kmh 29.91 in1012.9 mb 0.02 in0.5 mm 0.00 in0.0 mm 0.14 in3.6 mm
06:55 PM 57.9°F14.4°C 55.6°F13.1°C 92% 2.1 mph N3.4 kmh N 2.7 mph4.3 kmh 29.90 in1012.5 mb 0.04 in1.0 mm 0.24 in6.1 mm 0.16 in4.1 mm
07:00 PM 57.9°F14.4°C 55.6°F13.1°C 92% 2.4 mph N3.9 kmh N 2.7 mph4.3 kmh 29.91 in1012.9 mb 0.04 in1.0 mm 0.00 in0.0 mm 0.16 in4.1 mm
07:05 PM 57.9°F14.4°C 55.6°F13.1°C 92% 2.3 mph N3.7 kmh N 2.7 mph4.3 kmh 29.90 in1012.5 mb 0.06 in1.5 mm 0.24 in6.1 mm 0.18 in4.6 mm
07:10 PM 57.9°F14.4°C 55.6°F13.1°C 92% 2.1 mph NW3.4 kmh NW 2.7 mph4.3 kmh 29.90 in1012.5 mb 0.06 in1.5 mm 0.00 in0.0 mm 0.18 in4.6 mm
07:15 PM 57.9°F14.4°C 55.6°F13.1°C 92% 2.2 mph WNW3.5 kmh WNW 2.2 mph3.5 kmh 29.91 in1012.9 mb 0.08 in2.0 mm 0.24 in6.1 mm 0.20 in5.1 mm
07:20 PM 57.9°F14.4°C 55.6°F13.1°C 92% 2.1 mph WNW3.4 kmh WNW 2.2 mph3.5 kmh 29.91 in1012.9 mb 0.14 in3.6 mm 0.72 in18.3 mm 0.26 in6.6 mm
07:25 PM 57.9°F14.4°C 55.6°F13.1°C 92% 1.5 mph NW2.4 kmh NW 2.2 mph3.5 kmh 29.92 in1013.2 mb 0.22 in5.6 mm 0.96 in24.4 mm 0.35 in8.9 mm
07:30 PM 57.9°F14.4°C 55.6°F13.1°C 92% 1.2 mph WNW1.9 kmh WNW 1.6 mph2.6 kmh 29.93 in1013.5 mb 0.22 in5.6 mm 0.00 in0.0 mm 0.35 in8.9 mm
07:35 PM 57.9°F14.4°C 55.6°F13.1°C 92% 1.6 mph WNW2.6 kmh WNW 1.6 mph2.6 kmh 29.93 in1013.5 mb 0.49 in12.4 mm 3.24 in82.3 mm 0.61 in15.5 mm
07:37 PM 57.9°F14.4°C 55.6°F13.1°C 92% 1.6 mph WNW2.6 kmh WNW 1.6 mph2.6 kmh 29.93 in1013.5 mb 0.49 in12.4 mm 0.00 in0.0 mm 0.53 in13.5 mm
07:40 PM 57.9°F14.4°C 55.6°F13.1°C 92% 1.3 mph WNW2.1 kmh WNW 1.6 mph2.6 kmh 29.93 in1013.5 mb 0.53 in13.5 mm 0.80 in20.3 mm 0.65 in16.5 mm
07:45 PM 57.9°F14.4°C 55.6°F13.1°C 92% 0.8 mph NW1.3 kmh NW 1.6 mph2.6 kmh 29.93 in1013.5 mb 0.53 in13.5 mm 0.00 in0.0 mm 0.65 in16.5 mm
07:50 PM 57.9°F14.4°C 55.6°F13.1°C 92% 0.3 mph NNE0.5 kmh NNE 1.3 mph2.1 kmh 29.93 in1013.5 mb 0.53 in13.5 mm 0.00 in0.0 mm 0.67 in17.0 mm
07:55 PM 57.9°F14.4°C 55.6°F13.1°C 92% Calm Calm -- 29.92 in1013.2 mb 0.51 in13.0 mm 0.00 in0.0 mm 0.67 in17.0 mm
08:00 PM 57.7°F14.3°C 55.4°F13.0°C 92% 0.1 mph E0.2 kmh E 2.2 mph3.5 kmh 29.92 in1013.2 mb 0.51 in13.0 mm 0.00 in0.0 mm 0.67 in17.0 mm
08:05 PM 57.7°F14.3°C 55.4°F13.0°C 92% 0.8 mph ENE1.3 kmh ENE 2.2 mph3.5 kmh 29.93 in1013.5 mb 0.51 in13.0 mm 0.00 in0.0 mm 0.69 in17.5 mm
08:10 PM 57.7°F14.3°C 55.4°F13.0°C 92% 2.0 mph E3.2 kmh E 3.4 mph5.5 kmh 29.92 in1013.2 mb 0.51 in13.0 mm 0.00 in0.0 mm 0.69 in17.5 mm
08:15 PM 57.7°F14.3°C 55.4°F13.0°C 92% 3.0 mph E4.8 kmh E 3.8 mph6.1 kmh 29.92 in1013.2 mb 0.49 in12.4 mm 0.00 in0.0 mm 0.69 in17.5 mm
08:20 PM 57.7°F14.3°C 55.4°F13.0°C 92% 3.8 mph E6.1 kmh E 6.0 mph9.7 kmh 29.93 in1013.5 mb 0.43 in10.9 mm 0.00 in0.0 mm 0.69 in17.5 mm
08:25 PM 57.7°F14.3°C 55.4°F13.0°C 92% 4.1 mph SE6.6 kmh SE 6.0 mph9.7 kmh 29.92 in1013.2 mb 0.37 in9.4 mm 0.00 in0.0 mm 0.71 in18.0 mm
08:30 PM 57.6°F14.2°C 55.3°F12.9°C 92% 2.6 mph SE4.2 kmh SE 6.0 mph9.7 kmh 29.92 in1013.2 mb 0.39 in9.9 mm 0.24 in6.1 mm 0.73 in18.5 mm
08:35 PM 57.6°F14.2°C 55.3°F12.9°C 92% 0.7 mph SE1.1 kmh SE 4.7 mph7.6 kmh 29.92 in1013.2 mb 0.12 in3.0 mm 0.00 in0.0 mm 0.73 in18.5 mm
08:37 PM 57.6°F14.2°C 55.3°F12.9°C 92% Calm Calm -- 29.92 in1013.2 mb 0.12 in3.0 mm 0.00 in0.0 mm 0.65 in16.5 mm
08:40 PM 57.4°F14.1°C 55.1°F12.8°C 92% 0.3 mph NW0.5 kmh NW 1.6 mph2.6 kmh 29.91 in1012.9 mb 0.08 in2.0 mm 0.00 in0.0 mm 0.73 in18.5 mm
08:45 PM 57.4°F14.1°C 55.1°F12.8°C 92% 0.4 mph NW0.6 kmh NW 1.6 mph2.6 kmh 29.92 in1013.2 mb 0.08 in2.0 mm 0.00 in0.0 mm 0.73 in18.5 mm
08:50 PM 57.2°F14.0°C 54.9°F12.7°C 92% 0.2 mph SSE0.3 kmh SSE 1.1 mph1.8 kmh 29.92 in1013.2 mb 0.08 in2.0 mm 0.00 in0.0 mm 0.75 in19.1 mm
08:55 PM 57.0°F13.9°C 54.7°F12.6°C 92% 0.2 mph SSE0.3 kmh SSE 1.1 mph1.8 kmh 29.91 in1012.9 mb 0.10 in2.5 mm 0.24 in6.1 mm 0.77 in19.6 mm
09:00 PM 57.0°F13.9°C 54.7°F12.6°C 92% 1.5 mph NW2.4 kmh NW 4.0 mph6.4 kmh 29.91 in1012.9 mb 0.12 in3.0 mm 0.02 in0.5 mm 0.80 in20.3 mm
09:05 PM 57.0°F13.9°C 54.7°F12.6°C 92% 3.7 mph WNW6.0 kmh WNW 6.0 mph9.7 kmh 29.91 in1012.9 mb 0.10 in2.5 mm 0.00 in0.0 mm 0.80 in20.3 mm
09:10 PM 57.0°F13.9°C 54.7°F12.6°C 92% 5.2 mph W8.4 kmh W 6.0 mph9.7 kmh 29.91 in1012.9 mb 0.10 in2.5 mm 0.00 in0.0 mm 0.80 in20.3 mm
09:15 PM 56.8°F13.8°C 54.5°F12.5°C 92% 5.7 mph W9.2 kmh W 6.0 mph9.7 kmh 29.90 in1012.5 mb 0.12 in3.0 mm 0.24 in6.1 mm 0.82 in20.8 mm
09:20 PM 56.8°F13.8°C 54.5°F12.5°C 92% 5.7 mph WNW9.2 kmh WNW 6.9 mph11.1 kmh 29.90 in1012.5 mb 0.12 in3.0 mm 0.00 in0.0 mm 0.82 in20.8 mm
09:25 PM 56.8°F13.8°C 54.5°F12.5°C 92% 5.7 mph WNW9.2 kmh WNW 6.9 mph11.1 kmh 29.90 in1012.5 mb 0.10 in2.5 mm 0.00 in0.0 mm 0.82 in20.8 mm
09:30 PM 56.7°F13.7°C 54.4°F12.4°C 92% 3.5 mph WNW5.6 kmh WNW 6.9 mph11.1 kmh 29.89 in1012.2 mb 0.10 in2.5 mm 0.00 in0.0 mm 0.84 in21.3 mm
09:35 PM 56.7°F13.7°C 54.4°F12.4°C 92% 1.7 mph W2.7 kmh W 1.8 mph2.9 kmh 29.88 in1011.9 mb 0.10 in2.5 mm 0.00 in0.0 mm 0.84 in21.3 mm
09:37 PM 56.7°F13.7°C 54.4°F12.4°C 92% 1.8 mph WNW2.9 kmh WNW 1.8 mph2.9 kmh 29.88 in1011.9 mb 0.10 in2.5 mm 0.00 in0.0 mm 0.75 in19.1 mm
09:40 PM 56.5°F13.6°C 54.2°F12.3°C 92% 1.6 mph NW2.6 kmh NW 1.8 mph2.9 kmh 29.88 in1011.9 mb 0.12 in3.0 mm 0.40 in10.2 mm 0.86 in21.8 mm
09:45 PM 56.5°F13.6°C 54.2°F12.3°C 92% 1.4 mph NW2.3 kmh NW 1.9 mph3.1 kmh 29.89 in1012.2 mb 0.13 in3.3 mm 0.12 in3.0 mm 0.86 in21.8 mm
09:50 PM 56.5°F13.6°C 54.2°F12.3°C 92% 0.1 mph NNW0.2 kmh NNW 1.2 mph1.9 kmh 29.89 in1012.2 mb 0.10 in2.5 mm 0.00 in0.0 mm 0.86 in21.8 mm
09:55 PM 56.3°F13.5°C 54.0°F12.2°C 92% 1.0 mph SE1.6 kmh SE 3.1 mph5.0 kmh 29.89 in1012.2 mb 0.06 in1.5 mm 0.00 in0.0 mm 0.86 in21.8 mm
10:00 PM 56.3°F13.5°C 54.0°F12.2°C 92% 1.0 mph SE1.6 kmh SE 3.1 mph5.0 kmh 29.89 in1012.2 mb 0.06 in1.5 mm 0.00 in0.0 mm 0.86 in21.8 mm
10:05 PM 56.1°F13.4°C 53.8°F12.1°C 92% 0.1 mph N0.2 kmh N 0.9 mph1.4 kmh 29.88 in1011.9 mb 0.06 in1.5 mm 0.00 in0.0 mm 0.86 in21.8 mm
10:10 PM 56.1°F13.4°C 53.8°F12.1°C 92% 0.6 mph N1.0 kmh N 0.9 mph1.4 kmh 29.87 in1011.5 mb 0.06 in1.5 mm 0.00 in0.0 mm 0.86 in21.8 mm
10:15 PM 56.1°F13.4°C 53.8°F12.1°C 92% 1.1 mph NNE1.8 kmh NNE 2.0 mph3.2 kmh 29.86 in1011.2 mb 0.04 in1.0 mm 0.00 in0.0 mm 0.86 in21.8 mm
10:20 PM 56.1°F13.4°C 53.8°F12.1°C 92% 1.5 mph N2.4 kmh N 2.0 mph3.2 kmh 29.86 in1011.2 mb 0.04 in1.0 mm 0.00 in0.0 mm 0.86 in21.8 mm
10:25 PM 55.9°F13.3°C 53.6°F12.0°C 92% 1.8 mph N2.9 kmh N 5.1 mph8.2 kmh 29.88 in1011.9 mb 0.04 in1.0 mm 0.00 in0.0 mm 0.86 in21.8 mm
10:30 PM 55.9°F13.3°C 53.6°F12.0°C 92% 2.7 mph ESE4.3 kmh ESE 5.1 mph8.2 kmh 29.89 in1012.2 mb 0.02 in0.5 mm 0.00 in0.0 mm 0.86 in21.8 mm
10:35 PM 55.9°F13.3°C 53.6°F12.0°C 92% 3.2 mph SE5.1 kmh SE 5.1 mph8.2 kmh 29.90 in1012.5 mb 0.02 in0.5 mm 0.00 in0.0 mm 0.86 in21.8 mm
10:37 PM 55.9°F13.3°C 53.6°F12.0°C 92% 2.9 mph SSE4.7 kmh SSE 2.9 mph4.7 kmh 29.90 in1012.5 mb 0.02 in0.5 mm 0.00 in0.0 mm 0.77 in19.6 mm
10:40 PM 55.9°F13.3°C 53.9°F12.2°C 93% 4.4 mph SE7.1 kmh SE 9.2 mph14.8 kmh 29.90 in1012.5 mb 0.00 in0.0 mm 0.00 in0.0 mm 0.86 in21.8 mm
10:45 PM 55.9°F13.3°C 53.9°F12.2°C 93% 4.7 mph SE7.6 kmh SE 9.2 mph14.8 kmh 29.89 in1012.2 mb 0.00 in0.0 mm 0.00 in0.0 mm 0.86 in21.8 mm
10:50 PM 55.9°F13.3°C 53.9°F12.2°C 93% 2.8 mph SSE4.5 kmh SSE 3.6 mph5.8 kmh 29.89 in1012.2 mb 0.02 in0.5 mm 0.24 in6.1 mm 0.88 in22.4 mm
10:55 PM 55.9°F13.3°C 53.9°F12.2°C 93% 1.9 mph E3.1 kmh E 3.6 mph5.8 kmh 29.88 in1011.9 mb 0.02 in0.5 mm 0.00 in0.0 mm 0.88 in22.4 mm
11:00 PM 55.9°F13.3°C 53.9°F12.2°C 93% 1.3 mph E2.1 kmh E 1.8 mph2.9 kmh 29.88 in1011.9 mb 0.04 in1.0 mm 0.02 in0.5 mm 0.78 in19.8 mm
11:05 PM 55.9°F13.3°C 53.9°F12.2°C 93% 0.7 mph NE1.1 kmh NE 1.8 mph2.9 kmh 29.88 in1011.9 mb 0.06 in1.5 mm 0.24 in6.1 mm 0.02 in0.5 mm
11:10 PM 55.9°F13.3°C 53.9°F12.2°C 93% 1.1 mph NE1.8 kmh NE 1.8 mph2.9 kmh 29.88 in1011.9 mb 0.06 in1.5 mm 0.00 in0.0 mm 0.02 in0.5 mm
11:15 PM 55.8°F13.2°C 53.8°F12.1°C 93% 1.7 mph ENE2.7 kmh ENE 1.8 mph2.9 kmh 29.89 in1012.2 mb 0.06 in1.5 mm 0.00 in0.0 mm 0.02 in0.5 mm
11:20 PM 55.6°F13.1°C 53.6°F12.0°C 93% 2.4 mph SE3.9 kmh SE 3.8 mph6.1 kmh 29.90 in1012.5 mb 0.08 in2.0 mm 0.24 in6.1 mm 0.04 in1.0 mm
11:25 PM 55.6°F13.1°C 53.6°F12.0°C 93% 2.6 mph SSE4.2 kmh SSE 3.8 mph6.1 kmh 29.90 in1012.5 mb 0.10 in2.5 mm 0.24 in6.1 mm 0.06 in1.5 mm
11:30 PM 55.6°F13.1°C 53.6°F12.0°C 93% 1.7 mph SE2.7 kmh SE 2.7 mph4.3 kmh 29.90 in1012.5 mb 0.10 in2.5 mm 0.00 in0.0 mm 0.06 in1.5 mm
11:35 PM 55.6°F13.1°C 53.6°F12.0°C 93% 1.0 mph ENE1.6 kmh ENE 1.1 mph1.8 kmh 29.90 in1012.5 mb 0.12 in3.0 mm 0.24 in6.1 mm 0.08 in2.0 mm
11:37 PM 55.2°F12.9°C 53.2°F11.8°C 93% Calm Calm -- 29.90 in1012.5 mb 0.12 in3.0 mm 0.00 in0.0 mm 0.12 in3.0 mm
11:40 PM 55.2°F12.9°C 53.2°F11.8°C 93% 0.4 mph ENE0.6 kmh ENE 1.1 mph1.8 kmh 29.89 in1012.2 mb 0.17 in4.3 mm 1.00 in25.4 mm 0.12 in3.0 mm
11:45 PM 55.2°F12.9°C 53.2°F11.8°C 93% 0.5 mph NW0.8 kmh NW 2.5 mph4.0 kmh 29.88 in1011.9 mb 0.19 in4.8 mm 0.24 in6.1 mm 0.14 in3.6 mm
11:50 PM 55.0°F12.8°C 53.1°F11.7°C 93% 0.8 mph NNW1.3 kmh NNW 2.5 mph4.0 kmh 29.87 in1011.5 mb 0.19 in4.8 mm 0.00 in0.0 mm 0.16 in4.1 mm
11:55 PM 55.0°F12.8°C 53.1°F11.7°C 93% 0.3 mph N0.5 kmh N 2.5 mph4.0 kmh 29.87 in1011.5 mb 0.20 in5.1 mm 0.12 in3.0 mm 0.18 in4.6 mm